createdAt,value
2018-02-04T00:00:33.557Z,0.55
2018-02-04T00:03:01.925Z,0.44
2018-02-04T00:05:30.264Z,0.48
2018-02-04T00:07:58.681Z,0.46
2018-02-04T00:10:27.021Z,0.52
2018-02-04T00:12:55.332Z,0.42
2018-02-04T00:15:23.710Z,0.34
2018-02-04T00:17:52.030Z,0.30
2018-02-04T00:20:20.466Z,0.40
2018-02-04T00:22:48.781Z,0.41
2018-02-04T00:25:17.162Z,0.48
2018-02-04T00:27:45.493Z,0.54
2018-02-04T00:30:13.870Z,0.44
2018-02-04T00:32:42.241Z,0.31
2018-02-04T00:35:10.581Z,0.42
2018-02-04T00:37:38.897Z,0.38
2018-02-04T00:40:07.277Z,0.56
2018-02-04T00:42:35.653Z,0.42
2018-02-04T00:45:03.994Z,0.52
2018-02-04T00:47:32.405Z,0.50
2018-02-04T00:50:00.840Z,0.57
2018-02-04T00:52:29.138Z,0.61
2018-02-04T00:54:57.477Z,0.64
2018-02-04T00:57:25.808Z,0.64
2018-02-04T00:59:54.149Z,0.50
2018-02-04T01:02:22.505Z,0.39
2018-02-04T01:04:50.849Z,0.43
2018-02-04T01:07:19.161Z,0.48
2018-02-04T01:09:47.489Z,0.51
2018-02-04T01:12:15.874Z,0.38
2018-02-04T01:14:44.257Z,0.47
2018-02-04T01:17:12.625Z,0.52
2018-02-04T01:19:41.005Z,0.42
2018-02-04T01:22:09.377Z,0.56
2018-02-04T01:24:37.693Z,0.45
2018-02-04T01:27:06.037Z,0.42
2018-02-04T01:29:34.405Z,0.36
2018-02-04T01:32:02.749Z,0.39
2018-02-04T01:34:31.166Z,0.40
2018-02-04T01:36:59.542Z,0.38
2018-02-04T01:39:27.922Z,0.46
2018-02-04T01:41:56.297Z,0.38
2018-02-04T01:44:24.673Z,0.55
2018-02-04T01:46:53.054Z,0.66
2018-02-04T01:49:21.369Z,0.62
2018-02-04T01:51:49.801Z,0.61
2018-02-04T01:54:18.120Z,0.63
2018-02-04T01:56:46.456Z,0.67
2018-02-04T01:59:14.775Z,0.66
2018-02-04T02:01:43.213Z,0.69
2018-02-04T02:04:11.590Z,0.54
2018-02-04T02:06:39.933Z,0.63
2018-02-04T02:09:08.249Z,0.70
2018-02-04T02:11:36.621Z,0.75
2018-02-04T02:14:04.937Z,0.74
2018-02-04T02:16:33.368Z,0.76
2018-02-04T02:19:01.690Z,0.71
2018-02-04T02:21:30.025Z,0.67
2018-02-04T02:23:58.406Z,0.69
2018-02-04T02:26:26.746Z,0.56
2018-02-04T02:28:55.157Z,0.54
2018-02-04T02:31:23.498Z,0.51
2018-02-04T02:33:51.814Z,0.53
2018-02-04T02:36:20.181Z,0.38
2018-02-04T02:38:48.501Z,0.49
2018-02-04T02:41:16.943Z,0.51
2018-02-04T02:43:45.261Z,0.49
2018-02-04T02:46:13.602Z,0.45
2018-02-04T02:48:41.923Z,0.39
2018-02-04T02:51:10.409Z,0.37
2018-02-04T02:53:38.665Z,0.35
2018-02-04T02:56:07.009Z,0.47
2018-02-04T02:58:35.377Z,0.53
2018-02-04T03:01:03.753Z,0.40
2018-02-04T03:03:32.078Z,0.55
2018-02-04T03:06:00.413Z,0.50
2018-02-04T03:08:28.792Z,0.45
2018-02-04T03:10:57.157Z,0.49
2018-02-04T03:13:25.533Z,0.59
2018-02-04T03:15:53.916Z,0.48
2018-02-04T03:18:22.253Z,0.59
2018-02-04T03:20:50.669Z,0.49
2018-02-04T03:23:19.103Z,0.51
2018-02-04T03:25:47.402Z,0.58
2018-02-04T03:28:15.736Z,0.61
2018-02-04T03:30:44.078Z,0.82
2018-02-04T03:33:12.417Z,0.75
2018-02-04T03:35:41.182Z,0.76
2018-02-04T03:38:09.521Z,0.79
2018-02-04T03:40:37.843Z,0.76
2018-02-04T03:43:06.181Z,0.60
2018-02-04T03:45:34.497Z,0.58
2018-02-04T03:48:02.838Z,0.60
2018-02-04T03:50:31.158Z,0.56
2018-02-04T03:52:59.497Z,0.61
2018-02-04T03:55:27.849Z,0.55
2018-02-04T03:57:56.225Z,0.49
2018-02-04T04:00:24.551Z,0.45
2018-02-04T04:02:52.889Z,0.42
2018-02-04T04:05:21.209Z,0.33
2018-02-04T04:07:49.554Z,0.38
2018-02-04T04:10:17.869Z,0.30
2018-02-04T04:12:46.282Z,0.31
2018-02-04T04:15:14.601Z,0.29
2018-02-04T04:17:43.037Z,0.32
2018-02-04T04:20:11.357Z,0.18
2018-02-04T04:22:39.701Z,0.24
2018-02-04T04:25:08.030Z,0.14
2018-02-04T04:27:36.445Z,0.23
2018-02-04T04:30:04.761Z,0.25
2018-02-04T04:32:33.101Z,0.25
2018-02-04T04:35:01.417Z,0.30
2018-02-04T04:37:29.854Z,0.38
2018-02-04T04:39:58.227Z,0.41
2018-02-04T04:42:26.612Z,0.40
2018-02-04T04:44:54.930Z,0.34
2018-02-04T04:47:23.366Z,0.35
2018-02-04T04:49:51.682Z,0.42
2018-02-04T04:52:20.025Z,0.42
2018-02-04T04:54:48.351Z,0.49
2018-02-04T04:57:16.686Z,0.48
2018-02-04T04:59:45.004Z,0.62
2018-02-04T05:02:13.345Z,0.53
2018-02-04T05:04:41.693Z,0.62
2018-02-04T05:07:10.038Z,0.61
2018-02-04T05:09:38.356Z,0.79
2018-02-04T05:12:06.673Z,0.84
2018-02-04T05:14:35.014Z,0.78
2018-02-04T05:17:03.334Z,0.88
2018-02-04T05:19:31.674Z,1.01
2018-02-04T05:21:59.993Z,1.11
2018-02-04T05:24:28.330Z,1.18
2018-02-04T05:26:56.645Z,1.24
2018-02-04T05:29:24.984Z,1.28
2018-02-04T05:31:53.298Z,1.25
2018-02-04T05:34:21.637Z,1.20
2018-02-04T05:36:49.960Z,1.18
2018-02-04T05:39:18.294Z,1.19
2018-02-04T05:41:46.614Z,1.13
2018-02-04T05:44:14.953Z,1.17
2018-02-04T05:46:43.265Z,1.11
2018-02-04T05:49:11.606Z,1.20
2018-02-04T05:51:39.917Z,1.21
2018-02-04T05:54:08.262Z,1.22
2018-02-04T05:56:36.576Z,1.25
2018-02-04T05:59:04.917Z,1.26
2018-02-04T06:01:33.238Z,1.27
2018-02-04T06:04:01.578Z,1.27
2018-02-04T06:06:29.898Z,1.22
2018-02-04T06:08:58.237Z,1.20
2018-02-04T06:11:26.553Z,1.20
2018-02-04T06:13:55.002Z,1.22
2018-02-04T06:16:23.317Z,1.24
2018-02-04T06:18:51.657Z,1.23
2018-02-04T06:21:19.981Z,1.18
2018-02-04T06:23:48.318Z,1.19
2018-02-04T06:26:16.642Z,1.17
2018-02-04T06:28:44.982Z,1.18
2018-02-04T06:31:13.298Z,1.07
2018-02-04T06:33:41.634Z,1.05
2018-02-04T06:36:09.949Z,1.07
2018-02-04T06:38:38.296Z,1.10
2018-02-04T06:41:06.613Z,1.09
2018-02-04T06:43:34.957Z,1.09
2018-02-04T06:46:03.281Z,1.05
2018-02-04T06:48:31.629Z,1.04
2018-02-04T06:50:59.945Z,0.86
2018-02-04T06:53:28.288Z,0.83
2018-02-04T06:55:56.603Z,0.96
2018-02-04T06:58:24.992Z,0.98
2018-02-04T07:00:53.261Z,0.88
2018-02-04T07:03:21.608Z,0.92
2018-02-04T07:05:49.926Z,0.90
2018-02-04T07:08:18.278Z,0.91
2018-02-04T07:10:46.581Z,0.86
2018-02-04T07:13:14.896Z,0.70
2018-02-04T07:15:43.234Z,0.68
2018-02-04T07:18:11.550Z,0.51
2018-02-04T07:20:39.894Z,0.49
2018-02-04T07:23:08.214Z,0.54
2018-02-04T07:25:36.553Z,0.57
2018-02-04T07:28:04.869Z,0.65
2018-02-04T07:30:33.205Z,0.70
2018-02-04T07:33:01.521Z,0.51
2018-02-04T07:35:29.863Z,0.59
2018-02-04T07:37:58.173Z,0.64
2018-02-04T07:40:26.517Z,0.72
2018-02-04T07:42:54.829Z,0.83
2018-02-04T07:45:23.165Z,0.87
2018-02-04T07:47:51.481Z,0.81
2018-02-04T07:50:19.818Z,0.78
2018-02-04T07:52:48.137Z,0.81
2018-02-04T07:55:16.477Z,0.92
2018-02-04T07:57:44.798Z,1.02
2018-02-04T08:00:13.137Z,1.11
2018-02-04T08:02:41.457Z,1.16
2018-02-04T08:05:09.801Z,1.18
2018-02-04T08:07:38.122Z,1.15
2018-02-04T08:10:06.470Z,0.97
2018-02-04T08:12:34.788Z,0.99
2018-02-04T08:15:03.133Z,0.96
2018-02-04T08:17:31.453Z,0.85
2018-02-04T08:19:59.797Z,0.87
2018-02-04T08:25:13.789Z,0.38
2018-02-04T08:27:42.114Z,0.44
2018-02-04T08:30:10.622Z,0.52
2018-02-04T08:32:38.941Z,0.28
2018-02-04T08:35:11.357Z,0.15
2018-02-04T08:37:39.754Z,0.22
2018-02-04T08:40:08.101Z,0.18
2018-02-04T08:42:36.422Z,0.20
2018-02-04T08:45:04.764Z,0.32
2018-02-04T08:47:33.091Z,0.44
2018-02-04T08:50:01.434Z,0.28
2018-02-04T08:52:29.753Z,0.34
2018-02-04T08:54:58.130Z,0.49
2018-02-04T08:57:26.741Z,0.52
2018-02-04T08:59:56.660Z,0.45
2018-02-04T09:02:25.061Z,0.51
2018-02-04T09:04:53.418Z,0.47
2018-02-04T09:07:21.817Z,0.53
2018-02-04T09:09:50.198Z,0.35
2018-02-04T09:12:18.522Z,0.36
2018-02-04T09:14:46.879Z,0.29
2018-02-04T09:17:15.197Z,0.56
2018-02-04T09:19:43.601Z,0.57
2018-02-04T09:22:12.689Z,0.66
2018-02-04T09:24:41.005Z,0.72
2018-02-04T09:27:09.351Z,0.76
2018-02-04T09:29:37.734Z,0.70
2018-02-04T09:32:06.114Z,0.79
2018-02-04T09:34:34.441Z,0.87
2018-02-04T09:37:02.799Z,1.43
2018-02-04T09:39:31.109Z,1.30
2018-02-04T09:41:59.449Z,1.17
2018-02-04T09:44:27.791Z,0.99
2018-02-04T09:46:56.161Z,0.84
2018-02-04T09:49:24.494Z,0.90
2018-02-04T09:51:52.916Z,0.77
2018-02-04T09:54:21.292Z,0.70
2018-02-04T09:56:49.670Z,0.60
2018-02-04T09:59:17.989Z,0.52
2018-02-04T10:01:46.334Z,0.54
2018-02-04T10:04:14.657Z,0.64
2018-02-04T10:06:43.988Z,0.66
2018-02-04T10:09:12.306Z,0.76
2018-02-04T10:11:40.693Z,0.67
2018-02-04T10:14:09.013Z,0.73
2018-02-04T10:16:38.765Z,0.61
2018-02-04T10:19:07.113Z,0.83
2018-02-04T10:21:35.582Z,0.89
2018-02-04T10:24:03.893Z,0.81
2018-02-04T10:26:32.324Z,0.98
2018-02-04T10:29:00.646Z,1.00
2018-02-04T10:31:29.052Z,1.09
2018-02-04T10:33:57.477Z,0.76
2018-02-04T10:36:26.218Z,0.82
2018-02-04T10:38:54.641Z,0.79
2018-02-04T10:41:22.985Z,0.87
2018-02-04T10:43:51.317Z,0.95
2018-02-04T10:46:19.658Z,0.94
2018-02-04T10:48:47.986Z,1.00
2018-02-04T10:51:21.918Z,0.93
2018-02-04T10:53:50.238Z,1.16
2018-02-04T10:56:18.605Z,1.17
2018-02-04T10:58:46.942Z,1.25
2018-02-04T11:01:15.292Z,1.38
2018-02-04T11:03:43.614Z,1.43
2018-02-04T11:06:11.957Z,1.49
2018-02-04T11:08:40.298Z,1.33
2018-02-04T11:11:08.617Z,1.16
2018-02-04T11:13:36.961Z,1.08
2018-02-04T11:16:05.291Z,1.24
2018-02-04T11:18:33.693Z,1.03
2018-02-04T11:21:02.011Z,1.00
2018-02-04T11:23:30.357Z,1.16
2018-02-04T11:25:58.681Z,1.27
2018-02-04T11:28:27.028Z,1.15
2018-02-04T11:30:55.345Z,1.17
2018-02-04T11:33:23.688Z,1.12
2018-02-04T11:35:52.011Z,1.15
2018-02-04T11:38:20.374Z,1.15
2018-02-04T11:40:48.889Z,1.31
2018-02-04T11:43:17.262Z,1.30
2018-02-04T11:45:46.557Z,1.54
2018-02-04T11:48:14.992Z,1.41
2018-02-04T11:50:43.317Z,1.62
2018-02-04T11:53:11.666Z,1.67
2018-02-04T11:55:40.226Z,1.67
2018-02-04T11:58:08.549Z,1.75
2018-02-04T12:00:36.874Z,1.71
2018-02-04T12:03:05.217Z,1.93
2018-02-04T12:05:33.537Z,1.81
2018-02-04T12:08:01.949Z,1.79
2018-02-04T12:10:30.278Z,1.96
2018-02-04T12:12:58.621Z,1.90
2018-02-04T12:15:26.982Z,1.77
2018-02-04T12:17:55.326Z,1.77
2018-02-04T12:20:23.647Z,1.73
2018-02-04T12:22:52.009Z,1.87
2018-02-04T12:25:20.329Z,1.75
2018-02-04T12:27:48.671Z,1.70
2018-02-04T12:30:16.997Z,1.82
2018-02-04T12:32:46.180Z,1.90
2018-02-04T12:35:14.514Z,1.98
2018-02-04T12:37:42.890Z,1.84
2018-02-04T12:40:11.265Z,1.87
2018-02-04T12:42:39.606Z,1.89
2018-02-04T12:45:07.990Z,1.95
2018-02-04T12:47:36.390Z,2.14
2018-02-04T12:50:04.697Z,2.15
2018-02-04T12:52:33.046Z,2.10
2018-02-04T12:55:01.442Z,2.12
2018-02-04T12:57:29.798Z,2.09
2018-02-04T12:59:58.190Z,2.02
2018-02-04T13:02:26.533Z,2.05
2018-02-04T13:04:54.857Z,2.08
2018-02-04T13:07:23.310Z,1.94
2018-02-04T13:09:51.690Z,1.90
2018-02-04T13:12:20.009Z,2.03
2018-02-04T13:14:48.353Z,1.99
2018-02-04T13:17:16.685Z,2.08
2018-02-04T13:19:45.078Z,2.02
2018-02-04T13:22:13.410Z,2.10
2018-02-04T13:24:41.822Z,2.14
2018-02-04T13:27:10.225Z,2.18
2018-02-04T13:29:38.605Z,2.29
2018-02-04T13:32:06.933Z,2.11
2018-02-04T13:34:35.277Z,1.90
2018-02-04T13:37:03.602Z,2.09
2018-02-04T13:39:31.975Z,2.09
2018-02-04T13:42:01.077Z,2.09
2018-02-04T13:44:29.429Z,2.00
2018-02-04T13:46:58.737Z,2.09
2018-02-04T13:49:27.097Z,1.98
2018-02-04T13:51:55.429Z,1.82
2018-02-04T13:54:24.073Z,1.96
2018-02-04T13:56:53.413Z,1.98
2018-02-04T13:59:21.797Z,1.79
2018-02-04T14:01:50.169Z,1.76
2018-02-04T14:04:18.509Z,1.64
2018-02-04T14:06:46.829Z,1.52
2018-02-04T14:09:15.253Z,1.71
2018-02-04T14:11:43.553Z,1.66
2018-02-04T14:14:11.902Z,1.72
2018-02-04T14:16:40.217Z,1.73
2018-02-04T14:19:08.610Z,1.70
2018-02-04T14:21:36.930Z,1.76
2018-02-04T14:24:05.414Z,1.77
2018-02-04T14:26:35.122Z,1.81
2018-02-04T14:29:03.651Z,1.83
2018-02-04T14:31:31.974Z,1.96
2018-02-04T14:34:00.810Z,1.95
2018-02-04T14:36:29.169Z,1.95
2018-02-04T14:38:57.565Z,2.05
2018-02-04T14:41:26.827Z,2.00
2018-02-04T14:43:55.605Z,2.04
2018-02-04T14:46:24.392Z,2.22
2018-02-04T14:48:52.785Z,2.10
2018-02-04T14:51:21.105Z,2.24
2018-02-04T14:53:49.450Z,2.27
2018-02-04T14:56:17.845Z,2.18
2018-02-04T14:58:46.226Z,2.22
2018-02-04T15:01:14.571Z,2.10
2018-02-04T15:03:42.897Z,2.32
2018-02-04T15:06:11.226Z,2.33
2018-02-04T15:08:39.568Z,2.18
2018-02-04T15:11:07.894Z,2.34
2018-02-04T15:13:36.242Z,2.36
2018-02-04T15:16:04.762Z,2.38
2018-02-04T15:18:33.083Z,2.18
2018-02-04T15:21:01.422Z,2.15
2018-02-04T15:23:29.749Z,2.17
2018-02-04T15:25:58.093Z,2.16
2018-02-04T15:28:26.425Z,2.12
2018-02-04T15:30:54.769Z,1.97
2018-02-04T15:33:23.089Z,1.96
2018-02-04T15:35:51.429Z,1.85
2018-02-04T15:38:19.754Z,2.02
2018-02-04T15:40:48.098Z,1.95
2018-02-04T15:43:16.482Z,2.03
2018-02-04T15:45:45.740Z,2.20
2018-02-04T15:48:14.103Z,2.13
2018-02-04T15:50:42.463Z,1.97
2018-02-04T15:53:10.781Z,1.91
2018-02-04T15:55:39.125Z,1.77
2018-02-04T15:58:07.445Z,1.76
2018-02-04T16:00:35.855Z,1.56
2018-02-04T16:03:04.204Z,1.60
2018-02-04T16:05:32.542Z,1.70
2018-02-04T16:08:00.889Z,1.61
2018-02-04T16:10:29.233Z,1.63
2018-02-04T16:12:57.553Z,1.60
2018-02-04T16:15:25.903Z,1.54
2018-02-04T16:17:54.226Z,1.47
2018-02-04T16:20:22.569Z,1.51
2018-02-04T16:22:50.897Z,1.50
2018-02-04T16:25:19.247Z,1.45
2018-02-04T16:27:47.578Z,1.46
2018-02-04T16:30:15.925Z,1.53
2018-02-04T16:32:44.250Z,1.46
2018-02-04T16:35:12.592Z,1.45
2018-02-04T16:37:40.909Z,1.52
2018-02-04T16:40:09.257Z,1.54
2018-02-04T16:42:37.577Z,1.52
2018-02-04T16:45:05.923Z,1.50
2018-02-04T16:47:34.243Z,1.52
2018-02-04T16:50:02.585Z,1.60
2018-02-04T16:52:30.914Z,1.66
2018-02-04T16:55:00.274Z,1.57
2018-02-04T16:57:28.593Z,1.63
2018-02-04T16:59:56.937Z,1.62
2018-02-04T17:02:25.266Z,1.71
2018-02-04T17:04:53.610Z,1.69
2018-02-04T17:07:21.934Z,1.72
2018-02-04T17:09:50.282Z,1.73
2018-02-04T17:12:18.605Z,1.68
2018-02-04T17:14:46.945Z,1.71
2018-02-04T17:17:15.314Z,1.74
2018-02-04T17:19:43.617Z,1.84
2018-02-04T17:22:11.969Z,1.76
2018-02-04T17:24:40.294Z,1.81
2018-02-04T17:27:08.673Z,1.75
2018-02-04T17:29:37.006Z,1.79
2018-02-04T17:32:05.354Z,1.71
2018-02-04T17:34:34.577Z,1.65
2018-02-04T17:37:02.926Z,1.75
2018-02-04T17:39:31.245Z,1.76
2018-02-04T17:41:59.594Z,1.68
2018-02-04T17:44:27.954Z,1.69
2018-02-04T17:46:56.282Z,1.87
2018-02-04T17:49:24.607Z,1.83
2018-02-04T17:51:52.946Z,1.77
2018-02-04T17:54:21.306Z,1.70
2018-02-04T17:56:49.669Z,1.71
2018-02-04T17:59:18.003Z,1.75
2018-02-04T18:01:46.362Z,1.85
2018-02-04T18:04:14.683Z,1.79
2018-02-04T18:06:43.030Z,1.79
2018-02-04T18:09:11.356Z,1.76
2018-02-04T18:11:39.701Z,1.61
2018-02-04T18:14:08.053Z,1.69
2018-02-04T18:16:36.397Z,1.71
2018-02-04T18:19:06.130Z,1.64
2018-02-04T18:21:34.482Z,1.75
2018-02-04T18:24:02.916Z,1.65
2018-02-04T18:26:31.611Z,1.69
2018-02-04T18:29:00.085Z,1.61
2018-02-04T18:31:28.642Z,1.69
2018-02-04T18:33:57.051Z,1.65
2018-02-04T18:36:26.363Z,1.74
2018-02-04T18:38:54.724Z,2.35
2018-02-04T18:41:23.464Z,2.35
2018-02-04T18:43:51.910Z,2.15
2018-02-04T18:46:20.305Z,2.32
2018-02-04T18:48:48.722Z,2.15
2018-02-04T18:51:17.070Z,1.92
2018-02-04T18:53:45.438Z,1.90
2018-02-04T18:56:13.931Z,1.94
2018-02-04T18:58:42.245Z,1.90
2018-02-04T19:01:10.602Z,1.83
2018-02-04T19:03:38.933Z,1.91
2018-02-04T19:06:07.412Z,1.97
2018-02-04T19:08:35.849Z,1.99
2018-02-04T19:11:04.388Z,2.03
2018-02-04T19:13:32.698Z,2.05
2018-02-04T19:16:01.054Z,1.87
2018-02-04T19:18:29.382Z,1.79
2018-02-04T19:20:57.759Z,1.84
2018-02-04T19:23:26.090Z,1.71
2018-02-04T19:25:54.428Z,1.65
2018-02-04T19:28:23.118Z,1.69
2018-02-04T19:30:51.447Z,1.46
2018-02-04T19:33:19.792Z,1.60
2018-02-04T19:35:48.125Z,1.53
2018-02-04T19:38:16.481Z,1.64
2018-02-04T19:40:44.816Z,1.61
2018-02-04T19:43:13.162Z,1.59
2018-02-04T19:45:41.579Z,1.60
2018-02-04T19:48:09.893Z,1.57
2018-02-04T19:50:38.217Z,1.63
2018-02-04T19:53:06.661Z,1.63
2018-02-04T19:55:34.973Z,1.69
2018-02-04T19:58:03.321Z,1.78
2018-02-04T20:00:31.653Z,1.79
2018-02-04T20:03:00.005Z,1.90
2018-02-04T20:05:28.332Z,2.01
2018-02-04T20:07:56.696Z,1.90
2018-02-04T20:10:25.019Z,1.85
2018-02-04T20:12:53.391Z,1.91
2018-02-04T20:15:21.914Z,1.86
2018-02-04T20:17:50.262Z,2.10
2018-02-04T20:20:18.597Z,2.06
2018-02-04T20:22:46.945Z,2.10
2018-02-04T20:25:15.276Z,2.19
2018-02-04T20:27:43.622Z,2.23
2018-02-04T20:30:11.960Z,2.33
2018-02-04T20:32:51.913Z,2.35
2018-02-04T20:35:20.246Z,2.33
2018-02-04T20:37:48.622Z,2.21
2018-02-04T20:40:16.953Z,2.32
2018-02-04T20:42:45.305Z,2.41
2018-02-04T20:45:13.672Z,2.35
2018-02-04T20:47:42.047Z,2.33
2018-02-04T20:50:10.381Z,2.41
2018-02-04T20:52:38.733Z,2.27
2018-02-04T20:55:07.091Z,2.23
2018-02-04T20:57:35.592Z,2.18
2018-02-04T21:00:03.918Z,2.24
2018-02-04T21:02:32.270Z,2.24
2018-02-04T21:05:01.419Z,2.16
2018-02-04T21:07:29.769Z,2.25
2018-02-04T21:09:58.114Z,2.31
2018-02-04T21:12:26.470Z,2.35
2018-02-04T21:14:54.805Z,2.39
2018-02-04T21:17:23.157Z,2.34
2018-02-04T21:19:51.650Z,2.42
2018-02-04T21:22:20.045Z,2.43
2018-02-04T21:24:48.448Z,2.44
2018-02-04T21:27:17.039Z,2.55
2018-02-04T21:29:45.437Z,2.66
2018-02-04T21:32:13.925Z,2.34
2018-02-04T21:34:42.361Z,2.50
2018-02-04T21:37:10.730Z,2.61
2018-02-04T21:39:39.181Z,2.45
2018-02-04T21:42:07.506Z,2.57
2018-02-04T21:44:36.095Z,2.41
2018-02-04T21:47:04.486Z,2.34
2018-02-04T21:49:32.846Z,2.41
2018-02-04T21:52:01.176Z,2.31
2018-02-04T21:54:29.517Z,2.41
2018-02-04T21:56:57.850Z,2.34
2018-02-04T21:59:26.200Z,2.25
2018-02-04T22:01:54.537Z,2.16
2018-02-04T22:04:22.873Z,2.11
2018-02-04T22:06:51.201Z,1.96
2018-02-04T22:09:19.549Z,2.00
2018-02-04T22:11:47.882Z,1.96
2018-02-04T22:14:16.230Z,1.89
2018-02-04T22:16:44.565Z,1.84
2018-02-04T22:19:12.909Z,1.82
2018-02-04T22:21:41.236Z,1.83
2018-02-04T22:24:09.582Z,1.92
2018-02-04T22:26:37.901Z,1.95
2018-02-04T22:29:06.249Z,1.95
2018-02-04T22:31:34.573Z,1.91
2018-02-04T22:34:02.923Z,1.78
2018-02-04T22:36:31.249Z,1.83
2018-02-04T22:38:59.593Z,1.89
2018-02-04T22:41:27.917Z,1.94
2018-02-04T22:43:56.261Z,1.79
2018-02-04T22:46:24.584Z,1.69
2018-02-04T22:48:52.949Z,1.70
2018-02-04T22:51:21.258Z,1.86
2018-02-04T22:53:49.607Z,1.72
2018-02-04T22:56:17.929Z,1.77
2018-02-04T22:58:46.282Z,1.68
2018-02-04T23:01:14.601Z,1.75
2018-02-04T23:03:42.953Z,1.74
2018-02-04T23:06:11.281Z,1.75
2018-02-04T23:08:39.625Z,1.67
2018-02-04T23:11:07.951Z,1.65
2018-02-04T23:13:36.294Z,1.74
2018-02-04T23:16:04.620Z,1.72
2018-02-04T23:18:32.962Z,1.67
2018-02-04T23:21:01.286Z,1.59
2018-02-04T23:23:29.630Z,1.69
2018-02-04T23:25:57.953Z,1.84
2018-02-04T23:28:26.297Z,1.85
2018-02-04T23:30:54.626Z,1.73
2018-02-04T23:33:22.970Z,1.72
2018-02-04T23:35:51.298Z,1.86
2018-02-04T23:38:19.657Z,1.79
2018-02-04T23:40:47.982Z,1.85
2018-02-04T23:43:16.313Z,1.76
2018-02-04T23:45:44.663Z,1.90
2018-02-04T23:48:12.981Z,1.96
2018-02-04T23:50:41.337Z,1.85
2018-02-04T23:53:09.658Z,1.90
2018-02-04T23:55:38.001Z,1.94
2018-02-04T23:58:06.327Z,1.95
